sensor_id;sensor_type;location;lat;lon;timestamp;temperature;humidity
21108;DHT22;10712;52.944;9.098;2023-07-02T00:00:06;15.80;88.60
21108;DHT22;10712;52.944;9.098;2023-07-02T00:02:36;15.80;88.50
21108;DHT22;10712;52.944;9.098;2023-07-02T00:05:03;15.80;88.60
21108;DHT22;10712;52.944;9.098;2023-07-02T00:07:29;15.80;88.60
21108;DHT22;10712;52.944;9.098;2023-07-02T00:09:56;15.80;88.70
21108;DHT22;10712;52.944;9.098;2023-07-02T00:12:22;15.80;88.80
21108;DHT22;10712;52.944;9.098;2023-07-02T00:14:48;15.80;88.80
21108;DHT22;10712;52.944;9.098;2023-07-02T00:17:14;15.80;88.90
21108;DHT22;10712;52.944;9.098;2023-07-02T00:19:40;15.80;89.00
21108;DHT22;10712;52.944;9.098;2023-07-02T00:22:09;15.80;89.10
21108;DHT22;10712;52.944;9.098;2023-07-02T00:24:36;15.80;89.10
21108;DHT22;10712;52.944;9.098;2023-07-02T00:27:02;15.80;89.20
21108;DHT22;10712;52.944;9.098;2023-07-02T00:29:29;15.80;89.30
21108;DHT22;10712;52.944;9.098;2023-07-02T00:31:55;15.80;89.20
21108;DHT22;10712;52.944;9.098;2023-07-02T00:34:22;15.80;89.30
21108;DHT22;10712;52.944;9.098;2023-07-02T00:36:48;15.80;89.40
21108;DHT22;10712;52.944;9.098;2023-07-02T00:39:15;15.80;89.40
21108;DHT22;10712;52.944;9.098;2023-07-02T00:41:43;15.80;89.40
21108;DHT22;10712;52.944;9.098;2023-07-02T00:44:12;15.80;89.60
21108;DHT22;10712;52.944;9.098;2023-07-02T00:46:39;15.80;89.70
21108;DHT22;10712;52.944;9.098;2023-07-02T00:49:06;15.80;89.60
21108;DHT22;10712;52.944;9.098;2023-07-02T00:51:33;15.80;89.60
21108;DHT22;10712;52.944;9.098;2023-07-02T00:54:00;15.80;89.50
21108;DHT22;10712;52.944;9.098;2023-07-02T00:56:26;15.80;89.40
21108;DHT22;10712;52.944;9.098;2023-07-02T00:58:54;15.80;89.40
21108;DHT22;10712;52.944;9.098;2023-07-02T01:01:25;15.80;89.30
21108;DHT22;10712;52.944;9.098;2023-07-02T01:04:03;15.80;89.20
21108;DHT22;10712;52.944;9.098;2023-07-02T01:06:33;15.80;89.30
21108;DHT22;10712;52.944;9.098;2023-07-02T01:09:05;15.80;89.40
21108;DHT22;10712;52.944;9.098;2023-07-02T01:11:36;15.80;89.40
21108;DHT22;10712;52.944;9.098;2023-07-02T01:14:32;15.80;89.30
21108;DHT22;10712;52.944;9.098;2023-07-02T01:17:02;15.80;89.20
21108;DHT22;10712;52.944;9.098;2023-07-02T01:19:49;15.80;89.20
21108;DHT22;10712;52.944;9.098;2023-07-02T01:22:20;15.80;89.20
21108;DHT22;10712;52.944;9.098;2023-07-02T01:24:48;15.70;89.20
21108;DHT22;10712;52.944;9.098;2023-07-02T01:27:18;15.80;89.20
21108;DHT22;10712;52.944;9.098;2023-07-02T01:29:46;15.80;89.20
21108;DHT22;10712;52.944;9.098;2023-07-02T01:32:16;15.80;89.20
21108;DHT22;10712;52.944;9.098;2023-07-02T01:34:42;15.80;89.10
21108;DHT22;10712;52.944;9.098;2023-07-02T01:37:14;15.80;89.10
21108;DHT22;10712;52.944;9.098;2023-07-02T01:39:42;15.80;89.10
21108;DHT22;10712;52.944;9.098;2023-07-02T01:42:13;15.80;89.10
21108;DHT22;10712;52.944;9.098;2023-07-02T01:44:43;15.80;89.10
21108;DHT22;10712;52.944;9.098;2023-07-02T01:47:10;15.80;89.00
21108;DHT22;10712;52.944;9.098;2023-07-02T01:49:37;15.80;89.00
21108;DHT22;10712;52.944;9.098;2023-07-02T01:52:04;15.80;89.00
21108;DHT22;10712;52.944;9.098;2023-07-02T01:54:31;15.80;88.90
21108;DHT22;10712;52.944;9.098;2023-07-02T01:56:57;15.80;88.50
21108;DHT22;10712;52.944;9.098;2023-07-02T01:59:24;15.80;88.60
21108;DHT22;10712;52.944;9.098;2023-07-02T02:01:50;15.80;88.50
21108;DHT22;10712;52.944;9.098;2023-07-02T02:04:16;15.80;88.40
21108;DHT22;10712;52.944;9.098;2023-07-02T02:06:43;15.80;88.20
21108;DHT22;10712;52.944;9.098;2023-07-02T02:09:10;15.80;88.10
21108;DHT22;10712;52.944;9.098;2023-07-02T02:11:42;15.80;87.80
21108;DHT22;10712;52.944;9.098;2023-07-02T02:14:09;15.80;87.60
21108;DHT22;10712;52.944;9.098;2023-07-02T02:16:35;15.80;87.40
21108;DHT22;10712;52.944;9.098;2023-07-02T02:19:02;15.80;86.70
21108;DHT22;10712;52.944;9.098;2023-07-02T02:21:28;15.70;86.40
21108;DHT22;10712;52.944;9.098;2023-07-02T02:23:54;15.70;86.30
21108;DHT22;10712;52.944;9.098;2023-07-02T02:26:21;15.70;86.30
21108;DHT22;10712;52.944;9.098;2023-07-02T02:28:48;15.70;85.90
21108;DHT22;10712;52.944;9.098;2023-07-02T02:31:15;15.70;85.90
21108;DHT22;10712;52.944;9.098;2023-07-02T02:33:41;15.70;85.40
21108;DHT22;10712;52.944;9.098;2023-07-02T02:36:07;15.70;84.90
21108;DHT22;10712;52.944;9.098;2023-07-02T02:38:33;15.70;84.60
21108;DHT22;10712;52.944;9.098;2023-07-02T02:41:01;15.70;84.70
21108;DHT22;10712;52.944;9.098;2023-07-02T02:43:30;15.70;84.50
21108;DHT22;10712;52.944;9.098;2023-07-02T02:45:57;15.70;84.70
21108;DHT22;10712;52.944;9.098;2023-07-02T02:48:22;15.70;84.70
21108;DHT22;10712;52.944;9.098;2023-07-02T02:50:49;15.60;84.60
21108;DHT22;10712;52.944;9.098;2023-07-02T02:53:15;15.60;84.70
21108;DHT22;10712;52.944;9.098;2023-07-02T02:55:41;15.60;84.80
21108;DHT22;10712;52.944;9.098;2023-07-02T02:58:07;15.60;85.00
21108;DHT22;10712;52.944;9.098;2023-07-02T03:00:33;15.60;85.10
21108;DHT22;10712;52.944;9.098;2023-07-02T03:02:59;15.50;85.10
21108;DHT22;10712;52.944;9.098;2023-07-02T03:05:26;15.50;85.30
21108;DHT22;10712;52.944;9.098;2023-07-02T03:07:52;15.50;85.50
21108;DHT22;10712;52.944;9.098;2023-07-02T03:10:17;15.50;85.60
21108;DHT22;10712;52.944;9.098;2023-07-02T03:12:44;15.50;85.80
21108;DHT22;10712;52.944;9.098;2023-07-02T03:15:10;15.40;85.70
21108;DHT22;10712;52.944;9.098;2023-07-02T03:17:36;15.40;86.00
21108;DHT22;10712;52.944;9.098;2023-07-02T03:20:02;15.40;86.30
21108;DHT22;10712;52.944;9.098;2023-07-02T03:22:33;15.40;86.50
21108;DHT22;10712;52.944;9.098;2023-07-02T03:24:59;15.40;86.60
21108;DHT22;10712;52.944;9.098;2023-07-02T03:27:25;15.40;86.70
21108;DHT22;10712;52.944;9.098;2023-07-02T03:29:52;15.40;86.70
21108;DHT22;10712;52.944;9.098;2023-07-02T03:32:18;15.40;86.70
21108;DHT22;10712;52.944;9.098;2023-07-02T03:34:44;15.40;86.80
21108;DHT22;10712;52.944;9.098;2023-07-02T03:37:10;15.40;86.90
21108;DHT22;10712;52.944;9.098;2023-07-02T03:39:35;15.40;86.90
21108;DHT22;10712;52.944;9.098;2023-07-02T03:42:01;15.40;87.10
21108;DHT22;10712;52.944;9.098;2023-07-02T03:44:27;15.40;87.20
21108;DHT22;10712;52.944;9.098;2023-07-02T03:46:53;15.40;87.20
21108;DHT22;10712;52.944;9.098;2023-07-02T03:49:19;15.40;87.40
21108;DHT22;10712;52.944;9.098;2023-07-02T03:51:45;15.40;87.50
21108;DHT22;10712;52.944;9.098;2023-07-02T03:54:10;15.40;87.60
21108;DHT22;10712;52.944;9.098;2023-07-02T03:56:36;15.40;87.70
21108;DHT22;10712;52.944;9.098;2023-07-02T03:59:02;15.40;87.80
21108;DHT22;10712;52.944;9.098;2023-07-02T04:01:28;15.40;87.80
21108;DHT22;10712;52.944;9.098;2023-07-02T04:03:54;15.40;87.90
21108;DHT22;10712;52.944;9.098;2023-07-02T04:06:21;15.40;88.00
21108;DHT22;10712;52.944;9.098;2023-07-02T04:08:47;15.40;88.00
21108;DHT22;10712;52.944;9.098;2023-07-02T04:11:13;15.40;88.00
21108;DHT22;10712;52.944;9.098;2023-07-02T04:13:39;15.40;88.00
21108;DHT22;10712;52.944;9.098;2023-07-02T04:16:05;15.40;88.10
21108;DHT22;10712;52.944;9.098;2023-07-02T04:18:32;15.40;88.20
21108;DHT22;10712;52.944;9.098;2023-07-02T04:20:58;15.40;88.30
21108;DHT22;10712;52.944;9.098;2023-07-02T04:23:25;15.40;88.40
21108;DHT22;10712;52.944;9.098;2023-07-02T04:25:51;15.40;88.50
21108;DHT22;10712;52.944;9.098;2023-07-02T04:28:16;15.40;88.40
21108;DHT22;10712;52.944;9.098;2023-07-02T04:30:42;15.40;88.60
21108;DHT22;10712;52.944;9.098;2023-07-02T04:33:08;15.40;88.60
21108;DHT22;10712;52.944;9.098;2023-07-02T04:35:34;15.40;88.60
21108;DHT22;10712;52.944;9.098;2023-07-02T04:38:01;15.40;88.60
21108;DHT22;10712;52.944;9.098;2023-07-02T04:40:27;15.40;88.50
21108;DHT22;10712;52.944;9.098;2023-07-02T04:42:53;15.50;88.70
21108;DHT22;10712;52.944;9.098;2023-07-02T04:45:24;15.40;88.60
21108;DHT22;10712;52.944;9.098;2023-07-02T04:47:51;15.40;88.70
21108;DHT22;10712;52.944;9.098;2023-07-02T04:50:17;15.50;88.70
21108;DHT22;10712;52.944;9.098;2023-07-02T04:52:44;15.50;88.70
21108;DHT22;10712;52.944;9.098;2023-07-02T04:55:10;15.50;88.60
21108;DHT22;10712;52.944;9.098;2023-07-02T04:57:36;15.60;88.30
21108;DHT22;10712;52.944;9.098;2023-07-02T05:00:03;15.60;88.30
21108;DHT22;10712;52.944;9.098;2023-07-02T05:02:31;15.60;88.00
21108;DHT22;10712;52.944;9.098;2023-07-02T05:04:57;15.60;87.90
21108;DHT22;10712;52.944;9.098;2023-07-02T05:07:23;15.60;87.80
21108;DHT22;10712;52.944;9.098;2023-07-02T05:09:49;15.70;87.50
21108;DHT22;10712;52.944;9.098;2023-07-02T05:12:17;15.70;87.30
21108;DHT22;10712;52.944;9.098;2023-07-02T05:14:43;15.70;86.80
21108;DHT22;10712;52.944;9.098;2023-07-02T05:17:09;15.70;86.80
21108;DHT22;10712;52.944;9.098;2023-07-02T05:19:35;15.70;86.60
21108;DHT22;10712;52.944;9.098;2023-07-02T05:22:01;15.70;86.50
21108;DHT22;10712;52.944;9.098;2023-07-02T05:24:26;15.70;86.10
21108;DHT22;10712;52.944;9.098;2023-07-02T05:26:52;15.80;85.90
21108;DHT22;10712;52.944;9.098;2023-07-02T05:29:18;15.80;84.30
21108;DHT22;10712;52.944;9.098;2023-07-02T05:31:44;15.80;83.40
21108;DHT22;10712;52.944;9.098;2023-07-02T05:34:10;15.80;83.50
21108;DHT22;10712;52.944;9.098;2023-07-02T05:36:36;15.90;83.60
21108;DHT22;10712;52.944;9.098;2023-07-02T05:39:03;15.90;83.60
21108;DHT22;10712;52.944;9.098;2023-07-02T05:41:29;15.90;82.70
21108;DHT22;10712;52.944;9.098;2023-07-02T05:43:59;16.00;82.60
21108;DHT22;10712;52.944;9.098;2023-07-02T05:46:25;16.00;82.30
21108;DHT22;10712;52.944;9.098;2023-07-02T05:48:51;16.00;81.70
21108;DHT22;10712;52.944;9.098;2023-07-02T05:51:21;16.00;81.80
21108;DHT22;10712;52.944;9.098;2023-07-02T05:53:47;16.00;81.20
21108;DHT22;10712;52.944;9.098;2023-07-02T05:56:13;16.10;80.80
21108;DHT22;10712;52.944;9.098;2023-07-02T05:58:39;16.10;80.80
21108;DHT22;10712;52.944;9.098;2023-07-02T06:01:05;16.10;80.70
21108;DHT22;10712;52.944;9.098;2023-07-02T06:03:31;16.20;80.70
21108;DHT22;10712;52.944;9.098;2023-07-02T06:05:57;16.20;80.90
21108;DHT22;10712;52.944;9.098;2023-07-02T06:08:23;16.20;80.70
21108;DHT22;10712;52.944;9.098;2023-07-02T06:10:49;16.30;80.00
21108;DHT22;10712;52.944;9.098;2023-07-02T06:13:16;16.30;79.80
21108;DHT22;10712;52.944;9.098;2023-07-02T06:15:42;16.30;79.30
21108;DHT22;10712;52.944;9.098;2023-07-02T06:18:08;16.40;79.00
21108;DHT22;10712;52.944;9.098;2023-07-02T06:20:33;16.40;79.10
21108;DHT22;10712;52.944;9.098;2023-07-02T06:22:59;16.50;78.90
21108;DHT22;10712;52.944;9.098;2023-07-02T06:25:25;16.50;78.90
21108;DHT22;10712;52.944;9.098;2023-07-02T06:27:51;16.50;79.10
21108;DHT22;10712;52.944;9.098;2023-07-02T06:30:21;16.60;79.00
21108;DHT22;10712;52.944;9.098;2023-07-02T06:32:47;16.60;78.90
21108;DHT22;10712;52.944;9.098;2023-07-02T06:35:13;16.60;78.60
21108;DHT22;10712;52.944;9.098;2023-07-02T06:37:39;16.70;78.40
21108;DHT22;10712;52.944;9.098;2023-07-02T06:40:05;16.70;78.20
21108;DHT22;10712;52.944;9.098;2023-07-02T06:42:31;16.70;77.60
21108;DHT22;10712;52.944;9.098;2023-07-02T06:44:58;16.80;76.80
21108;DHT22;10712;52.944;9.098;2023-07-02T06:47:24;16.80;77.00
21108;DHT22;10712;52.944;9.098;2023-07-02T06:49:52;16.80;76.90
21108;DHT22;10712;52.944;9.098;2023-07-02T06:52:18;16.80;76.50
21108;DHT22;10712;52.944;9.098;2023-07-02T06:54:44;16.80;76.70
21108;DHT22;10712;52.944;9.098;2023-07-02T06:57:09;16.90;76.80
21108;DHT22;10712;52.944;9.098;2023-07-02T06:59:35;16.90;76.50
21108;DHT22;10712;52.944;9.098;2023-07-02T07:02:02;17.00;74.90
21108;DHT22;10712;52.944;9.098;2023-07-02T07:04:28;17.00;75.00
21108;DHT22;10712;52.944;9.098;2023-07-02T07:06:54;17.00;75.40
21108;DHT22;10712;52.944;9.098;2023-07-02T07:09:21;17.10;74.90
21108;DHT22;10712;52.944;9.098;2023-07-02T07:11:47;17.10;74.90
21108;DHT22;10712;52.944;9.098;2023-07-02T07:14:13;17.10;74.50
21108;DHT22;10712;52.944;9.098;2023-07-02T07:16:39;17.10;74.40
21108;DHT22;10712;52.944;9.098;2023-07-02T07:19:05;17.10;74.50
21108;DHT22;10712;52.944;9.098;2023-07-02T07:21:31;17.10;74.50
21108;DHT22;10712;52.944;9.098;2023-07-02T07:23:57;17.10;74.60
21108;DHT22;10712;52.944;9.098;2023-07-02T07:26:23;17.10;74.60
21108;DHT22;10712;52.944;9.098;2023-07-02T07:28:49;17.10;74.80
21108;DHT22;10712;52.944;9.098;2023-07-02T07:31:15;17.20;74.40
21108;DHT22;10712;52.944;9.098;2023-07-02T07:33:40;17.30;74.20
21108;DHT22;10712;52.944;9.098;2023-07-02T07:36:06;17.30;73.90
21108;DHT22;10712;52.944;9.098;2023-07-02T07:38:32;17.40;74.30
21108;DHT22;10712;52.944;9.098;2023-07-02T07:40:58;17.50;73.80
21108;DHT22;10712;52.944;9.098;2023-07-02T07:43:24;17.50;72.60
21108;DHT22;10712;52.944;9.098;2023-07-02T07:45:49;17.40;72.00
21108;DHT22;10712;52.944;9.098;2023-07-02T07:48:15;17.40;72.40
21108;DHT22;10712;52.944;9.098;2023-07-02T07:50:41;17.40;71.80
21108;DHT22;10712;52.944;9.098;2023-07-02T07:53:07;17.40;70.60
21108;DHT22;10712;52.944;9.098;2023-07-02T07:55:32;17.40;70.10
21108;DHT22;10712;52.944;9.098;2023-07-02T07:57:58;17.50;70.00
21108;DHT22;10712;52.944;9.098;2023-07-02T08:00:24;17.50;70.30
21108;DHT22;10712;52.944;9.098;2023-07-02T08:02:51;17.50;70.00
21108;DHT22;10712;52.944;9.098;2023-07-02T08:05:18;17.60;70.10
21108;DHT22;10712;52.944;9.098;2023-07-02T08:07:43;17.70;70.50
21108;DHT22;10712;52.944;9.098;2023-07-02T08:10:10;17.70;70.50
21108;DHT22;10712;52.944;9.098;2023-07-02T08:12:36;17.80;70.50
21108;DHT22;10712;52.944;9.098;2023-07-02T08:15:02;17.90;68.70
21108;DHT22;10712;52.944;9.098;2023-07-02T08:17:28;17.90;67.70
21108;DHT22;10712;52.944;9.098;2023-07-02T08:19:56;17.90;68.10
21108;DHT22;10712;52.944;9.098;2023-07-02T08:22:23;17.90;67.40
21108;DHT22;10712;52.944;9.098;2023-07-02T08:24:49;18.00;67.10
21108;DHT22;10712;52.944;9.098;2023-07-02T08:27:16;17.90;66.40
21108;DHT22;10712;52.944;9.098;2023-07-02T08:29:46;17.90;65.80
21108;DHT22;10712;52.944;9.098;2023-07-02T08:32:12;18.00;66.30
21108;DHT22;10712;52.944;9.098;2023-07-02T08:34:38;18.10;66.60
21108;DHT22;10712;52.944;9.098;2023-07-02T08:37:04;18.20;66.40
21108;DHT22;10712;52.944;9.098;2023-07-02T08:39:29;18.20;66.40
21108;DHT22;10712;52.944;9.098;2023-07-02T08:41:55;18.20;66.20
21108;DHT22;10712;52.944;9.098;2023-07-02T08:44:21;18.30;67.30
21108;DHT22;10712;52.944;9.098;2023-07-02T08:46:47;18.40;65.20
21108;DHT22;10712;52.944;9.098;2023-07-02T08:49:18;18.40;63.70
21108;DHT22;10712;52.944;9.098;2023-07-02T08:51:45;18.40;65.10
21108;DHT22;10712;52.944;9.098;2023-07-02T08:54:12;18.40;64.60
21108;DHT22;10712;52.944;9.098;2023-07-02T08:56:38;18.50;63.90
21108;DHT22;10712;52.944;9.098;2023-07-02T08:59:08;18.50;62.30
21108;DHT22;10712;52.944;9.098;2023-07-02T09:01:50;18.50;62.50
21108;DHT22;10712;52.944;9.098;2023-07-02T09:04:24;18.50;63.60
21108;DHT22;10712;52.944;9.098;2023-07-02T09:07:04;18.60;62.40
21108;DHT22;10712;52.944;9.098;2023-07-02T09:09:50;18.60;62.10
21108;DHT22;10712;52.944;9.098;2023-07-02T09:12:42;18.50;63.30
21108;DHT22;10712;52.944;9.098;2023-07-02T09:15:08;18.50;64.10
21108;DHT22;10712;52.944;9.098;2023-07-02T09:17:35;18.40;64.00
21108;DHT22;10712;52.944;9.098;2023-07-02T09:20:05;18.40;64.40
21108;DHT22;10712;52.944;9.098;2023-07-02T09:22:36;18.40;63.90
21108;DHT22;10712;52.944;9.098;2023-07-02T09:25:02;18.20;63.60
21108;DHT22;10712;52.944;9.098;2023-07-02T09:27:39;18.10;64.10
21108;DHT22;10712;52.944;9.098;2023-07-02T09:30:10;18.00;64.70
21108;DHT22;10712;52.944;9.098;2023-07-02T09:32:42;18.00;64.90
21108;DHT22;10712;52.944;9.098;2023-07-02T09:35:10;18.00;65.30
21108;DHT22;10712;52.944;9.098;2023-07-02T09:37:36;18.00;65.60
21108;DHT22;10712;52.944;9.098;2023-07-02T09:40:03;18.00;65.70
21108;DHT22;10712;52.944;9.098;2023-07-02T09:42:34;18.10;66.00
21108;DHT22;10712;52.944;9.098;2023-07-02T09:45:02;18.10;66.00
21108;DHT22;10712;52.944;9.098;2023-07-02T09:47:29;18.20;66.20
21108;DHT22;10712;52.944;9.098;2023-07-02T09:50:03;18.30;65.80
21108;DHT22;10712;52.944;9.098;2023-07-02T09:52:34;18.40;65.40
21108;DHT22;10712;52.944;9.098;2023-07-02T09:55:01;18.40;66.20
21108;DHT22;10712;52.944;9.098;2023-07-02T09:57:29;18.50;66.50
21108;DHT22;10712;52.944;9.098;2023-07-02T09:59:58;18.50;65.30
21108;DHT22;10712;52.944;9.098;2023-07-02T10:02:25;18.50;65.00
21108;DHT22;10712;52.944;9.098;2023-07-02T10:04:51;18.40;63.30
21108;DHT22;10712;52.944;9.098;2023-07-02T10:07:30;18.30;63.00
21108;DHT22;10712;52.944;9.098;2023-07-02T10:10:00;18.30;62.70
21108;DHT22;10712;52.944;9.098;2023-07-02T10:12:27;18.20;63.50
21108;DHT22;10712;52.944;9.098;2023-07-02T10:14:55;18.20;62.60
21108;DHT22;10712;52.944;9.098;2023-07-02T10:17:34;18.30;64.60
21108;DHT22;10712;52.944;9.098;2023-07-02T10:20:06;18.40;64.20
21108;DHT22;10712;52.944;9.098;2023-07-02T10:22:46;18.50;64.10
21108;DHT22;10712;52.944;9.098;2023-07-02T10:25:25;18.70;63.80
21108;DHT22;10712;52.944;9.098;2023-07-02T10:27:52;18.80;61.20
21108;DHT22;10712;52.944;9.098;2023-07-02T10:30:18;18.70;60.50
21108;DHT22;10712;52.944;9.098;2023-07-02T10:32:44;18.70;61.50
21108;DHT22;10712;52.944;9.098;2023-07-02T10:35:18;18.70;61.50
21108;DHT22;10712;52.944;9.098;2023-07-02T10:37:45;18.60;62.70
21108;DHT22;10712;52.944;9.098;2023-07-02T10:40:12;18.60;63.50
21108;DHT22;10712;52.944;9.098;2023-07-02T10:42:48;18.50;64.70
21108;DHT22;10712;52.944;9.098;2023-07-02T10:45:15;18.50;66.40
21108;DHT22;10712;52.944;9.098;2023-07-02T10:47:41;18.40;66.30
21108;DHT22;10712;52.944;9.098;2023-07-02T10:50:16;18.50;68.00
21108;DHT22;10712;52.944;9.098;2023-07-02T10:52:43;18.60;67.60
21108;DHT22;10712;52.944;9.098;2023-07-02T10:55:09;18.80;66.60
21108;DHT22;10712;52.944;9.098;2023-07-02T10:57:35;18.80;66.40
21108;DHT22;10712;52.944;9.098;2023-07-02T11:00:05;18.90;67.70
21108;DHT22;10712;52.944;9.098;2023-07-02T11:02:39;19.10;67.70
21108;DHT22;10712;52.944;9.098;2023-07-02T11:05:06;19.30;67.40
21108;DHT22;10712;52.944;9.098;2023-07-02T11:07:38;19.40;64.60
21108;DHT22;10712;52.944;9.098;2023-07-02T11:10:08;19.50;62.60
21108;DHT22;10712;52.944;9.098;2023-07-02T11:12:35;19.40;62.50
21108;DHT22;10712;52.944;9.098;2023-07-02T11:15:16;19.40;63.10
21108;DHT22;10712;52.944;9.098;2023-07-02T11:17:46;19.30;62.60
21108;DHT22;10712;52.944;9.098;2023-07-02T11:20:13;19.20;61.80
21108;DHT22;10712;52.944;9.098;2023-07-02T11:22:40;19.10;62.10
21108;DHT22;10712;52.944;9.098;2023-07-02T11:25:16;19.10;62.70
21108;DHT22;10712;52.944;9.098;2023-07-02T11:27:44;19.00;63.10
21108;DHT22;10712;52.944;9.098;2023-07-02T11:30:11;19.00;63.70
21108;DHT22;10712;52.944;9.098;2023-07-02T11:32:48;18.90;64.20
21108;DHT22;10712;52.944;9.098;2023-07-02T11:35:16;18.90;64.40
21108;DHT22;10712;52.944;9.098;2023-07-02T11:37:42;19.00;63.80
21108;DHT22;10712;52.944;9.098;2023-07-02T11:40:09;19.10;64.00
21108;DHT22;10712;52.944;9.098;2023-07-02T11:42:35;19.30;63.30
21108;DHT22;10712;52.944;9.098;2023-07-02T11:45:01;19.40;62.40
21108;DHT22;10712;52.944;9.098;2023-07-02T11:47:27;19.40;60.60
21108;DHT22;10712;52.944;9.098;2023-07-02T11:49:53;19.40;60.30
21108;DHT22;10712;52.944;9.098;2023-07-02T11:52:21;19.30;59.00
21108;DHT22;10712;52.944;9.098;2023-07-02T11:54:47;19.30;59.60
21108;DHT22;10712;52.944;9.098;2023-07-02T11:57:13;19.30;59.00
21108;DHT22;10712;52.944;9.098;2023-07-02T11:59:41;19.20;59.60
21108;DHT22;10712;52.944;9.098;2023-07-02T12:02:07;19.20;60.20
21108;DHT22;10712;52.944;9.098;2023-07-02T12:04:33;19.20;61.00
21108;DHT22;10712;52.944;9.098;2023-07-02T12:07:00;19.30;61.50
21108;DHT22;10712;52.944;9.098;2023-07-02T12:09:29;19.30;61.00
21108;DHT22;10712;52.944;9.098;2023-07-02T12:11:55;19.30;60.50
21108;DHT22;10712;52.944;9.098;2023-07-02T12:14:20;19.40;60.80
21108;DHT22;10712;52.944;9.098;2023-07-02T12:16:46;19.40;60.10
21108;DHT22;10712;52.944;9.098;2023-07-02T12:19:12;19.40;59.30
21108;DHT22;10712;52.944;9.098;2023-07-02T12:21:38;19.40;59.90
21108;DHT22;10712;52.944;9.098;2023-07-02T12:24:04;19.40;60.10
21108;DHT22;10712;52.944;9.098;2023-07-02T12:26:37;19.50;59.60
21108;DHT22;10712;52.944;9.098;2023-07-02T12:29:04;19.50;58.80
21108;DHT22;10712;52.944;9.098;2023-07-02T12:31:30;19.50;58.40
21108;DHT22;10712;52.944;9.098;2023-07-02T12:33:57;19.50;58.50
21108;DHT22;10712;52.944;9.098;2023-07-02T12:36:25;19.40;59.10
21108;DHT22;10712;52.944;9.098;2023-07-02T12:38:51;19.30;59.10
21108;DHT22;10712;52.944;9.098;2023-07-02T12:41:16;19.20;59.70
21108;DHT22;10712;52.944;9.098;2023-07-02T12:43:42;19.20;60.20
21108;DHT22;10712;52.944;9.098;2023-07-02T12:46:08;19.20;60.80
21108;DHT22;10712;52.944;9.098;2023-07-02T12:48:34;19.10;61.00
21108;DHT22;10712;52.944;9.098;2023-07-02T12:51:00;19.10;61.80
21108;DHT22;10712;52.944;9.098;2023-07-02T12:53:27;19.10;61.90
21108;DHT22;10712;52.944;9.098;2023-07-02T12:55:53;19.20;62.30
21108;DHT22;10712;52.944;9.098;2023-07-02T12:58:22;19.30;61.30
21108;DHT22;10712;52.944;9.098;2023-07-02T13:00:48;19.30;60.80
21108;DHT22;10712;52.944;9.098;2023-07-02T13:03:16;19.40;59.50
21108;DHT22;10712;52.944;9.098;2023-07-02T13:05:43;19.40;60.00
21108;DHT22;10712;52.944;9.098;2023-07-02T13:08:10;19.40;59.30
21108;DHT22;10712;52.944;9.098;2023-07-02T13:10:35;19.40;59.00
21108;DHT22;10712;52.944;9.098;2023-07-02T13:13:01;19.40;59.30
21108;DHT22;10712;52.944;9.098;2023-07-02T13:15:27;19.40;59.70
21108;DHT22;10712;52.944;9.098;2023-07-02T13:17:53;19.30;60.10
21108;DHT22;10712;52.944;9.098;2023-07-02T13:20:18;19.30;60.20
21108;DHT22;10712;52.944;9.098;2023-07-02T13:22:44;19.20;60.30
21108;DHT22;10712;52.944;9.098;2023-07-02T13:25:10;19.20;60.70
21108;DHT22;10712;52.944;9.098;2023-07-02T13:27:37;19.20;61.10
21108;DHT22;10712;52.944;9.098;2023-07-02T13:30:03;19.30;61.20
21108;DHT22;10712;52.944;9.098;2023-07-02T13:32:30;19.50;60.70
21108;DHT22;10712;52.944;9.098;2023-07-02T13:34:55;19.60;57.90
21108;DHT22;10712;52.944;9.098;2023-07-02T13:37:21;19.60;57.90
21108;DHT22;10712;52.944;9.098;2023-07-02T13:39:48;19.70;57.40
21108;DHT22;10712;52.944;9.098;2023-07-02T13:42:15;19.70;57.00
21108;DHT22;10712;52.944;9.098;2023-07-02T13:44:42;19.90;57.70
21108;DHT22;10712;52.944;9.098;2023-07-02T13:47:08;19.90;56.40
21108;DHT22;10712;52.944;9.098;2023-07-02T13:49:34;19.90;55.70
21108;DHT22;10712;52.944;9.098;2023-07-02T13:51:59;19.90;56.20
21108;DHT22;10712;52.944;9.098;2023-07-02T13:54:25;19.90;56.10
21108;DHT22;10712;52.944;9.098;2023-07-02T13:56:52;19.90;56.10
21108;DHT22;10712;52.944;9.098;2023-07-02T13:59:19;19.80;57.10
21108;DHT22;10712;52.944;9.098;2023-07-02T14:01:46;19.80;57.50
21108;DHT22;10712;52.944;9.098;2023-07-02T14:04:13;19.80;57.70
21108;DHT22;10712;52.944;9.098;2023-07-02T14:06:41;19.90;58.20
21108;DHT22;10712;52.944;9.098;2023-07-02T14:09:08;19.90;58.10
21108;DHT22;10712;52.944;9.098;2023-07-02T14:11:36;19.90;57.30
21108;DHT22;10712;52.944;9.098;2023-07-02T14:14:04;19.90;57.40
21108;DHT22;10712;52.944;9.098;2023-07-02T14:16:31;20.00;58.00
21108;DHT22;10712;52.944;9.098;2023-07-02T14:18:57;20.10;57.50
21108;DHT22;10712;52.944;9.098;2023-07-02T14:21:23;20.10;57.20
21108;DHT22;10712;52.944;9.098;2023-07-02T14:23:49;20.10;57.90
21108;DHT22;10712;52.944;9.098;2023-07-02T14:26:15;20.00;57.70
21108;DHT22;10712;52.944;9.098;2023-07-02T14:28:41;19.90;57.40
21108;DHT22;10712;52.944;9.098;2023-07-02T14:31:07;19.90;58.50
21108;DHT22;10712;52.944;9.098;2023-07-02T14:33:34;20.00;58.50
21108;DHT22;10712;52.944;9.098;2023-07-02T14:36:03;20.10;59.40
21108;DHT22;10712;52.944;9.098;2023-07-02T14:38:29;20.20;58.90
21108;DHT22;10712;52.944;9.098;2023-07-02T14:40:56;20.20;59.00
21108;DHT22;10712;52.944;9.098;2023-07-02T14:43:27;20.10;58.30
21108;DHT22;10712;52.944;9.098;2023-07-02T14:45:56;20.00;57.40
21108;DHT22;10712;52.944;9.098;2023-07-02T14:48:24;19.90;57.30
21108;DHT22;10712;52.944;9.098;2023-07-02T14:50:57;19.90;58.30
21108;DHT22;10712;52.944;9.098;2023-07-02T14:53:25;19.80;58.60
21108;DHT22;10712;52.944;9.098;2023-07-02T14:55:57;19.80;58.80
21108;DHT22;10712;52.944;9.098;2023-07-02T14:58:25;19.80;58.90
21108;DHT22;10712;52.944;9.098;2023-07-02T15:00:53;19.80;58.10
21108;DHT22;10712;52.944;9.098;2023-07-02T15:03:22;19.80;58.20
21108;DHT22;10712;52.944;9.098;2023-07-02T15:05:49;19.90;58.30
21108;DHT22;10712;52.944;9.098;2023-07-02T15:08:17;20.00;58.60
21108;DHT22;10712;52.944;9.098;2023-07-02T15:10:49;20.10;58.70
21108;DHT22;10712;52.944;9.098;2023-07-02T15:13:17;20.10;58.60
21108;DHT22;10712;52.944;9.098;2023-07-02T15:15:45;20.10;58.90
21108;DHT22;10712;52.944;9.098;2023-07-02T15:18:11;20.10;58.80
21108;DHT22;10712;52.944;9.098;2023-07-02T15:20:37;20.10;57.80
21108;DHT22;10712;52.944;9.098;2023-07-02T15:23:03;20.00;57.00
21108;DHT22;10712;52.944;9.098;2023-07-02T15:25:31;20.00;57.30
21108;DHT22;10712;52.944;9.098;2023-07-02T15:27:57;20.00;57.70
21108;DHT22;10712;52.944;9.098;2023-07-02T15:30:23;19.90;58.00